Time;durP1;ratioP1;P1;durP2;ratioP2;P2;SDS_P1;SDS_P2;PMS_P1;PMS_P2;Temp;Humidity;BMP_temperature;BMP_pressure;BME280_temperature;BME280_humidity;BME280_pressure;Samples;Min_cycle;Max_cycle;Signal;HPM_P1;HPM_P2
2021/06/25 00:00:58;;;;;;;2.20;0.65;;;;;;;18.38;52.92;98522.13;5030884;28;20569;-65
2021/06/25 00:03:23;;;;;;;3.30;0.70;;;;;;;18.63;53.74;98575.06;5003964;28;20076;-65
2021/06/25 00:05:48;;;;;;;2.85;0.70;;;;;;;18.60;54.41;98573.66;5016782;28;20045;-65
2021/06/25 00:08:14;;;;;;;2.25;0.80;;;;;;;18.53;54.52;98572.81;5017948;28;20044;-66
2021/06/25 00:10:39;;;;;;;2.53;0.80;;;;;;;18.48;55.42;98574.41;5022749;28;20040;-65
2021/06/25 00:13:05;;;;;;;4.00;0.80;;;;;;;18.39;56.17;98582.47;5020810;28;20076;-65
2021/06/25 00:15:31;;;;;;;2.60;0.77;;;;;;;18.33;57.11;98571.94;5019616;28;20490;-66
2021/06/25 00:17:58;;;;;;;2.42;0.82;;;;;;;18.34;57.67;98573.53;5017423;28;20025;-66
2021/06/25 00:20:25;;;;;;;4.10;0.93;;;;;;;18.20;58.16;98557.69;5032787;28;20033;-65
2021/06/25 00:22:51;;;;;;;3.40;0.88;;;;;;;18.20;58.25;98562.94;5017797;28;20025;-65
2021/06/25 00:25:16;;;;;;;3.40;0.90;;;;;;;18.20;58.96;98557.69;5019432;28;20041;-64
2021/06/25 00:27:42;;;;;;;3.08;0.90;;;;;;;18.21;58.74;98551.41;5016712;28;20029;-65
2021/06/25 00:30:08;;;;;;;2.25;0.80;;;;;;;18.11;58.73;98540.44;5018179;28;20379;-64
2021/06/25 00:32:33;;;;;;;2.65;0.93;;;;;;;18.17;59.59;98563.34;5014664;28;20624;-64
2021/06/25 00:34:59;;;;;;;3.97;1.08;;;;;;;18.15;59.47;98559.28;5021602;28;20064;-65
2021/06/25 00:37:25;;;;;;;2.65;0.82;;;;;;;18.08;59.96;98563.69;5010281;28;20018;-65
2021/06/25 00:39:52;;;;;;;3.50;0.80;;;;;;;18.03;60.11;98551.13;5019877;28;20559;-65
2021/06/25 00:42:17;;;;;;;3.13;0.80;;;;;;;18.14;60.53;98552.38;5014848;28;20052;-65
2021/06/25 00:44:43;;;;;;;3.05;0.88;;;;;;;17.87;60.44;98520.69;5018145;28;20221;-65
2021/06/25 00:47:09;;;;;;;4.10;0.90;;;;;;;18.07;59.66;98549.75;5019092;28;20025;-65
2021/06/25 00:49:35;;;;;;;2.92;1.02;;;;;;;18.01;59.17;98543.41;5013859;28;20439;-65
2021/06/25 00:52:01;;;;;;;3.25;0.80;;;;;;;17.81;59.18;98516.16;5010803;28;20029;-65
2021/06/25 00:54:27;;;;;;;3.20;1.00;;;;;;;18.05;59.21;98549.94;5016739;28;20041;-65
2021/06/25 00:56:52;;;;;;;3.22;0.85;;;;;;;17.80;59.35;98511.91;5014577;28;20049;-64
2021/06/25 00:59:18;;;;;;;2.38;0.82;;;;;;;18.05;59.92;98534.16;5032798;28;20033;-65
2021/06/25 01:01:43;;;;;;;5.00;0.80;;;;;;;18.17;58.12;98552.81;5018751;28;20562;-65
2021/06/25 01:04:09;;;;;;;2.55;0.73;;;;;;;17.92;58.47;98514.84;5029923;28;20033;-65
2021/06/25 01:06:35;;;;;;;5.22;1.00;;;;;;;18.09;57.31;98533.72;5013589;28;20550;-65
2021/06/25 01:09:03;;;;;;;3.30;1.00;;;;;;;17.96;57.63;98500.28;5037730;28;20037;-65
2021/06/25 01:11:30;;;;;;;1.80;0.70;;;;;;;18.18;56.67;98546.56;5013796;28;20087;-65
2021/06/25 01:13:55;;;;;;;3.17;0.70;;;;;;;18.22;54.88;98531.19;5027178;28;20573;-64
2021/06/25 01:16:21;;;;;;;2.42;0.77;;;;;;;18.30;52.65;98544.16;5021669;28;20041;-65
2021/06/25 01:18:46;;;;;;;1.92;0.70;;;;;;;18.27;53.03;98525.31;5016313;28;20466;-65
2021/06/25 01:21:12;;;;;;;2.92;0.60;;;;;;;18.31;52.63;98544.97;5034491;28;20034;-65
2021/06/25 01:23:39;;;;;;;2.30;0.70;;;;;;;18.29;52.62;98536.47;5022878;28;20040;-65
2021/06/25 01:26:04;;;;;;;1.50;0.60;;;;;;;18.11;53.59;98487.00;5038170;28;20039;-66
2021/06/25 01:28:30;;;;;;;3.35;0.70;;;;;;;18.19;53.70;98507.88;5013608;28;20492;-66
2021/06/25 01:30:55;;;;;;;3.08;0.85;;;;;;;18.24;55.70;98532.59;5023447;28;20033;-63
2021/06/25 01:33:20;;;;;;;3.05;0.95;;;;;;;18.12;56.01;98518.38;5021654;28;20033;-65
2021/06/25 01:35:46;;;;;;;2.97;0.82;;;;;;;18.24;56.37;98539.69;5025951;28;20456;-65
2021/06/25 01:38:12;;;;;;;2.20;0.63;;;;;;;18.19;55.43;98531.56;5027839;28;20352;-65
2021/06/25 01:40:39;;;;;;;1.88;0.60;;;;;;;18.20;54.99;98541.09;5022057;28;20145;-64
2021/06/25 01:43:06;;;;;;;1.85;0.60;;;;;;;18.16;55.73;98531.94;5018436;28;20033;-66
2021/06/25 01:45:34;;;;;;;2.80;0.70;;;;;;;18.15;54.15;98539.03;5003612;28;21851;-66
2021/06/25 01:48:01;;;;;;;2.03;0.60;;;;;;;18.13;54.49;98533.16;5019242;28;20656;-66
2021/06/25 01:50:29;;;;;;;2.60;0.70;;;;;;;18.03;54.57;98523.00;5020046;28;20026;-66
2021/06/25 01:52:56;;;;;;;4.40;0.90;;;;;;;18.14;55.09;98528.69;5020342;28;20427;-64
2021/06/25 01:55:22;;;;;;;3.13;0.70;;;;;;;18.11;56.08;98522.03;5019506;28;20128;-65
2021/06/25 01:57:48;;;;;;;4.15;0.80;;;;;;;18.01;56.48;98522.38;5020082;28;20030;-65
2021/06/25 02:00:13;;;;;;;2.00;0.63;;;;;;;17.85;57.40;98513.00;5024069;28;20143;-65
2021/06/25 02:02:40;;;;;;;3.35;0.70;;;;;;;17.84;57.67;98523.66;5022623;28;20037;-65
2021/06/25 02:05:08;;;;;;;3.38;0.70;;;;;;;17.85;57.24;98527.94;5022308;28;20021;-65
2021/06/25 02:07:33;;;;;;;2.35;0.70;;;;;;;17.89;58.14;98525.75;5021261;28;20194;-64
2021/06/25 02:09:59;;;;;;;2.47;0.77;;;;;;;17.56;58.40;98479.81;5023724;28;20116;-66
2021/06/25 02:12:25;;;;;;;3.10;0.80;;;;;;;17.53;59.03;98482.81;5021124;28;20032;-65
2021/06/25 02:14:52;;;;;;;3.63;0.80;;;;;;;17.71;58.72;98508.63;5021266;28;20087;-65
2021/06/25 02:17:17;;;;;;;2.22;0.70;;;;;;;17.83;58.38;98517.59;5017146;28;20029;-65
2021/06/25 02:19:43;;;;;;;1.83;0.70;;;;;;;17.68;59.28;98507.19;5026714;28;20037;-65
2021/06/25 02:22:09;;;;;;;1.67;0.70;;;;;;;17.65;59.69;98507.59;5018607;28;20116;-65
2021/06/25 02:24:35;;;;;;;2.20;0.75;;;;;;;17.67;59.25;98510.03;5022723;28;20030;-64
2021/06/25 02:27:00;;;;;;;2.58;0.70;;;;;;;17.66;59.31;98517.09;5022412;28;20109;-65
2021/06/25 02:29:26;;;;;;;1.58;0.70;;;;;;;17.63;59.36;98500.88;5010501;28;20123;-65
2021/06/25 02:31:52;;;;;;;2.60;0.70;;;;;;;17.61;60.00;98511.59;5020475;28;20063;-66
2021/06/25 02:34:17;;;;;;;3.97;0.82;;;;;;;17.58;59.95;98513.81;5020161;28;20168;-64
2021/06/25 02:36:43;;;;;;;2.45;0.63;;;;;;;17.61;61.09;98516.03;5013117;28;20532;-64
2021/06/25 02:39:08;;;;;;;3.38;0.70;;;;;;;17.64;61.73;98518.28;5022726;28;20052;-65
2021/06/25 02:41:34;;;;;;;3.00;0.80;;;;;;;17.29;61.78;98484.09;5018029;28;20045;-65
2021/06/25 02:43:59;;;;;;;4.13;0.80;;;;;;;17.51;61.63;98505.88;5030358;28;20075;-65
2021/06/25 02:46:24;;;;;;;2.80;0.70;;;;;;;17.33;62.34;98479.25;5031481;28;20041;-65
2021/06/25 02:48:50;;;;;;;2.22;0.77;;;;;;;17.48;62.11;98520.19;5020362;28;20079;-65
2021/06/25 02:51:15;;;;;;;2.45;0.80;;;;;;;17.12;62.87;98465.13;5016867;28;20135;-66
2021/06/25 02:53:41;;;;;;;3.85;0.80;;;;;;;17.39;62.88;98507.41;5006964;28;20452;-66
2021/06/25 02:56:06;;;;;;;3.25;0.90;;;;;;;17.36;62.70;98503.34;5020487;28;20030;-65
2021/06/25 02:58:32;;;;;;;2.55;0.80;;;;;;;17.35;62.89;98500.91;5035930;28;20044;-65
2021/06/25 03:00:57;;;;;;;3.35;0.80;;;;;;;17.30;63.49;98506.72;5022726;28;20029;-65
2021/06/25 03:03:23;;;;;;;3.90;1.00;;;;;;;17.35;63.66;98501.69;5019160;28;20034;-65
2021/06/25 03:05:50;;;;;;;4.57;0.90;;;;;;;17.35;64.11;98500.91;5020359;28;20515;-65
2021/06/25 03:08:16;;;;;;;4.68;1.17;;;;;;;17.30;64.60;98501.47;5021532;28;20029;-65
2021/06/25 03:10:43;;;;;;;3.00;0.80;;;;;;;17.31;65.13;98499.66;5015119;28;20030;-65
2021/06/25 03:13:09;;;;;;;2.63;1.00;;;;;;;17.25;65.26;98512.56;5006919;28;20017;-65
2021/06/25 03:15:34;;;;;;;2.67;0.90;;;;;;;17.09;65.66;98489.97;5030749;28;20086;-65
2021/06/25 03:18:00;;;;;;;3.63;0.98;;;;;;;16.86;65.97;98456.03;5012356;28;20111;-65
2021/06/25 03:20:26;;;;;;;3.10;0.98;;;;;;;17.15;65.99;98498.91;5023962;28;20041;-65
2021/06/25 03:22:51;;;;;;;2.65;0.98;;;;;;;17.07;66.70;98504.31;5014279;28;20035;-66
2021/06/25 03:25:17;;;;;;;5.53;1.10;;;;;;;17.08;67.10;98503.31;5036279;28;20435;-66
2021/06/25 03:27:42;;;;;;;4.00;1.10;;;;;;;17.05;66.78;98508.97;4992943;28;20022;-65
2021/06/25 03:30:09;;;;;;;4.20;1.10;;;;;;;17.07;67.00;98501.69;5034333;28;20037;-65
2021/06/25 03:32:35;;;;;;;2.78;0.90;;;;;;;17.00;66.39;98506.06;5013276;28;20040;-66
2021/06/25 03:35:01;;;;;;;3.53;0.80;;;;;;;17.02;66.77;98507.50;5038322;28;20041;-64
2021/06/25 03:37:26;;;;;;;3.08;1.10;;;;;;;17.06;67.21;98515.81;5020746;28;20029;-65
2021/06/25 03:39:52;;;;;;;2.95;0.95;;;;;;;17.04;67.39;98515.19;5035315;28;20369;-65
2021/06/25 03:42:17;;;;;;;2.90;1.00;;;;;;;17.03;67.54;98505.69;5034900;28;20033;-65
2021/06/25 03:44:43;;;;;;;3.58;1.00;;;;;;;16.94;67.08;98497.13;5021361;28;20080;-65
2021/06/25 03:47:08;;;;;;;3.28;1.10;;;;;;;16.97;67.62;98509.88;5024474;28;20029;-66
2021/06/25 03:49:34;;;;;;;3.72;1.00;;;;;;;16.97;67.91;98509.06;5037586;28;20037;-66
2021/06/25 03:51:59;;;;;;;2.47;1.00;;;;;;;16.98;67.74;98514.13;5035533;28;20021;-65
2021/06/25 03:54:25;;;;;;;6.43;1.10;;;;;;;16.98;67.55;98510.72;5018022;28;20037;-65
2021/06/25 03:56:50;;;;;;;3.10;0.90;;;;;;;16.93;67.80;98513.88;5021033;28;20033;-65
2021/06/25 03:59:16;;;;;;;3.05;0.90;;;;;;;16.71;67.23;98461.34;5019295;28;20028;-65
2021/06/25 04:01:42;;;;;;;3.00;1.10;;;;;;;16.95;66.96;98517.13;5011268;28;20391;-66
2021/06/25 04:04:08;;;;;;;4.15;1.00;;;;;;;16.93;67.04;98508.63;5014662;28;20388;-65
2021/06/25 04:06:33;;;;;;;5.55;1.20;;;;;;;16.95;67.06;98511.06;5020202;28;20109;-66
2021/06/25 04:08:59;;;;;;;3.00;1.00;;;;;;;16.91;67.03;98515.88;5033699;28;20084;-64
2021/06/25 04:11:24;;;;;;;3.17;1.10;;;;;;;16.86;66.97;98503.31;5017130;28;20487;-64
2021/06/25 04:13:50;;;;;;;2.60;0.80;;;;;;;16.92;66.78;98507.03;5019846;28;20032;-65
2021/06/25 04:16:15;;;;;;;3.03;0.90;;;;;;;16.54;67.18;98449.47;5017437;28;20087;-66
2021/06/25 04:18:41;;;;;;;3.00;1.00;;;;;;;16.70;67.04;98464.13;5012867;28;20145;-66
2021/06/25 04:21:06;;;;;;;2.50;1.00;;;;;;;16.88;67.52;98493.47;5034650;28;20036;-65
2021/06/25 04:23:32;;;;;;;2.50;0.80;;;;;;;16.95;67.08;98501.38;5017318;28;20794;-65
2021/06/25 04:25:59;;;;;;;2.38;0.95;;;;;;;16.98;66.92;98494.94;5036789;28;20033;-66
2021/06/25 04:28:25;;;;;;;2.58;0.90;;;;;;;16.75;67.88;98469.66;5018757;28;20040;-65
2021/06/25 04:30:51;;;;;;;3.42;0.98;;;;;;;17.02;68.84;98509.31;5018274;28;20029;-65
2021/06/25 04:33:17;;;;;;;7.35;1.25;;;;;;;17.06;67.72;98506.13;5014283;28;20053;-65
2021/06/25 04:35:43;;;;;;;2.58;0.73;;;;;;;16.98;66.47;98501.00;5010481;28;20377;-65
2021/06/25 04:38:09;;;;;;;3.80;0.80;;;;;;;16.64;67.65;98478.84;5014163;28;20128;-64
2021/06/25 04:40:37;;;;;;;2.47;0.90;;;;;;;16.78;66.94;98497.34;5021637;28;20064;-65
2021/06/25 04:43:03;;;;;;;3.25;0.88;;;;;;;16.80;67.16;98509.28;5021278;28;20456;-67
2021/06/25 04:45:28;;;;;;;2.20;0.70;;;;;;;16.82;67.03;98496.78;5023085;28;20036;-65
2021/06/25 04:47:53;;;;;;;2.78;0.85;;;;;;;16.80;66.97;98495.34;5021234;28;20038;-65
2021/06/25 04:50:19;;;;;;;2.00;0.80;;;;;;;16.71;67.01;98489.41;5021024;28;20025;-64
2021/06/25 04:52:44;;;;;;;2.63;0.70;;;;;;;16.76;67.77;98491.50;5038320;28;20432;-65
2021/06/25 04:55:10;;;;;;;2.50;0.93;;;;;;;16.64;67.76;98486.72;5025162;28;20483;-66
2021/06/25 04:57:39;;;;;;;2.80;0.73;;;;;;;16.68;67.72;98487.16;5021574;28;20049;-66
2021/06/25 05:00:07;;;;;;;3.37;1.10;;;;;;;16.71;67.73;98490.22;5018958;28;20026;-65
2021/06/25 05:02:32;;;;;;;8.55;1.30;;;;;;;16.57;67.86;98477.94;5025821;28;20566;-65
2021/06/25 05:04:58;;;;;;;3.20;0.90;;;;;;;16.69;68.48;98496.66;5036351;28;20033;-65
2021/06/25 05:07:23;;;;;;;2.90;0.90;;;;;;;16.72;68.50;98493.66;5023946;28;20037;-66
2021/06/25 05:09:48;;;;;;;4.45;1.10;;;;;;;16.64;67.89;98483.28;5015163;28;20053;-65
2021/06/25 05:12:14;;;;;;;2.75;0.88;;;;;;;16.63;68.81;98485.09;5020269;28;20029;-66
2021/06/25 05:14:40;;;;;;;5.38;1.00;;;;;;;16.72;68.74;98491.03;5020385;28;20034;-66
2021/06/25 05:17:06;;;;;;;2.63;0.82;;;;;;;16.64;68.21;98489.34;5023755;28;20112;-65
2021/06/25 05:19:31;;;;;;;3.80;0.80;;;;;;;16.68;67.41;98495.03;5020857;28;20453;-66
2021/06/25 05:21:57;;;;;;;2.67;0.80;;;;;;;16.53;66.72;98451.25;5039539;28;20022;-65
2021/06/25 05:24:23;;;;;;;2.50;0.80;;;;;;;16.75;66.65;98490.66;5019175;28;20033;-65
2021/06/25 05:26:48;;;;;;;2.85;0.77;;;;;;;16.74;66.59;98489.03;5013955;28;20915;-65
2021/06/25 05:29:14;;;;;;;8.35;1.20;;;;;;;16.79;66.00;98485.84;5022433;28;20079;-65
2021/06/25 05:31:39;;;;;;;4.20;1.10;;;;;;;16.51;65.12;98439.34;5013775;28;20032;-65
2021/06/25 05:34:04;;;;;;;8.20;1.10;;;;;;;16.78;64.48;98481.59;5022614;28;20171;-65
2021/06/25 05:36:30;;;;;;;8.10;1.10;;;;;;;16.77;63.44;98472.09;5036712;28;20029;-65
2021/06/25 05:38:55;;;;;;;7.07;1.02;;;;;;;16.94;62.51;98476.13;5020245;28;20029;-65
2021/06/25 05:41:21;;;;;;;4.45;0.90;;;;;;;16.88;61.92;98467.19;5015379;28;20029;-65
2021/06/25 05:43:46;;;;;;;2.78;0.80;;;;;;;16.75;61.80;98434.72;5013109;28;20049;-65
2021/06/25 05:46:12;;;;;;;2.70;0.73;;;;;;;17.05;62.08;98477.44;5020171;28;20056;-65
2021/06/25 05:48:39;;;;;;;2.13;0.68;;;;;;;17.02;61.67;98472.56;5018874;28;20490;-64
2021/06/25 05:51:05;;;;;;;2.85;0.80;;;;;;;17.03;61.51;98467.13;5031414;28;20526;-66
2021/06/25 05:53:32;;;;;;;2.35;0.70;;;;;;;17.01;62.14;98463.03;5018289;28;20515;-66
2021/06/25 05:55:57;;;;;;;2.65;0.80;;;;;;;16.96;61.31;98439.97;5036834;28;20108;-65
2021/06/25 05:58:23;;;;;;;2.90;0.90;;;;;;;17.25;60.70;98482.84;5010358;28;20034;-65
2021/06/25 06:00:48;;;;;;;3.78;1.00;;;;;;;17.18;60.61;98468.84;5036356;28;20801;-66
2021/06/25 06:03:14;;;;;;;4.10;1.02;;;;;;;17.22;60.55;98470.88;5017357;28;20037;-66
2021/06/25 06:05:39;;;;;;;3.55;0.90;;;;;;;17.18;59.74;98474.09;5024166;28;20131;-66
2021/06/25 06:08:05;;;;;;;1.92;0.60;;;;;;;17.21;59.65;98465.81;5031255;28;20021;-65
2021/06/25 06:10:31;;;;;;;3.70;0.70;;;;;;;17.22;59.76;98459.56;5017958;28;20036;-65
2021/06/25 06:12:56;;;;;;;1.70;0.55;;;;;;;17.33;60.44;98476.63;5039044;28;20030;-64
2021/06/25 06:15:22;;;;;;;1.80;0.60;;;;;;;17.27;60.42;98468.50;5022182;28;20033;-66
2021/06/25 06:17:48;;;;;;;1.95;0.60;;;;;;;17.00;60.77;98417.59;5027615;28;20030;-66
2021/06/25 06:20:19;;;;;;;1.77;0.70;;;;;;;17.29;59.19;98463.06;5019318;28;21140;-66
2021/06/25 06:31:11;;;;;;;4.40;0.98;;;;;;;17.48;57.01;98446.59;5015592;28;20179;-65
2021/06/25 06:36:22;;;;;;;4.00;0.80;;;;;;;17.37;55.79;98418.22;5027556;28;20394;-65
2021/06/25 06:38:49;;;;;;;1.73;0.63;;;;;;;17.72;56.03;98457.66;5009203;28;20388;-66
2021/06/25 06:41:15;;;;;;;2.83;0.82;;;;;;;17.44;55.92;98420.91;5016169;28;20276;-65
2021/06/25 06:43:41;;;;;;;2.22;0.70;;;;;;;17.52;55.83;98420.72;5015660;28;20049;-66
2021/06/25 06:46:09;;;;;;;5.95;0.93;;;;;;;17.44;56.18;98410.38;5036456;28;20021;-66
2021/06/25 06:48:36;;;;;;;4.72;0.73;;;;;;;17.66;56.87;98450.53;5037943;28;20033;-65
2021/06/25 06:51:01;;;;;;;4.15;0.90;;;;;;;17.61;56.47;98445.84;5014776;28;20400;-66
2021/06/25 06:53:27;;;;;;;2.88;0.73;;;;;;;17.60;56.47;98443.44;5028007;28;20124;-66
2021/06/25 06:55:52;;;;;;;5.30;0.75;;;;;;;17.67;55.67;98449.56;5023121;28;20040;-66
2021/06/25 06:58:18;;;;;;;3.00;0.80;;;;;;;17.63;55.14;98440.41;5028174;28;20034;-67
2021/06/25 07:00:43;;;;;;;3.72;0.70;;;;;;;17.56;54.55;98422.00;5017616;28;20033;-66
2021/06/25 07:03:08;;;;;;;3.30;0.73;;;;;;;17.82;53.90;98438.91;5018284;28;20120;-66
2021/06/25 07:05:34;;;;;;;5.65;1.10;;;;;;;17.89;53.57;98442.41;5021275;28;20033;-67
2021/06/25 07:07:59;;;;;;;4.13;0.95;;;;;;;17.96;53.25;98445.03;5017770;28;20104;-66
2021/06/25 07:10:25;;;;;;;6.38;0.80;;;;;;;17.92;53.01;98417.53;5017645;28;20061;-66
2021/06/25 07:12:51;;;;;;;1.77;0.60;;;;;;;18.06;53.46;98441.03;5015582;28;20026;-65
2021/06/25 07:15:16;;;;;;;2.85;0.70;;;;;;;18.21;52.99;98440.88;5017269;28;20090;-67
2021/06/25 07:17:42;;;;;;;2.72;0.63;;;;;;;18.01;53.23;98401.34;5021708;28;20033;-66
2021/06/25 07:20:08;;;;;;;1.70;0.70;;;;;;;18.30;52.71;98432.81;5017969;28;20022;-66
2021/06/25 07:22:33;;;;;;;3.10;0.85;;;;;;;18.30;52.69;98433.63;5018989;28;20494;-66
2021/06/25 07:24:59;;;;;;;3.83;1.00;;;;;;;18.08;52.43;98397.94;5019895;28;20475;-66
2021/06/25 07:27:24;;;;;;;5.70;2.13;;;;;;;18.07;51.95;98399.78;5012244;28;20034;-66
2021/06/25 07:29:50;;;;;;;5.78;2.40;;;;;;;18.12;51.97;98402.59;5030563;28;20052;-66
2021/06/25 07:32:16;;;;;;;5.55;1.10;;;;;;;18.34;51.37;98442.75;5015226;28;20112;-67
2021/06/25 07:34:41;;;;;;;3.50;1.40;;;;;;;18.41;51.20;98437.50;5021794;28;20113;-67
2021/06/25 07:37:06;;;;;;;7.05;1.75;;;;;;;18.61;50.85;98440.97;5015396;28;20592;-66
2021/06/25 07:39:32;;;;;;;4.43;0.90;;;;;;;18.67;50.96;98430.66;5015922;28;20028;-67
2021/06/25 07:41:57;;;;;;;4.88;1.77;;;;;;;19.02;50.00;98432.13;5013557;28;20051;-67
2021/06/25 07:44:23;;;;;;;4.90;1.65;;;;;;;19.56;47.70;98397.75;5031998;28;20030;-68
2021/06/25 07:46:48;;;;;;;5.47;2.20;;;;;;;20.45;46.19;98429.66;5020642;28;20464;-66
2021/06/25 07:49:13;;;;;;;7.47;2.58;;;;;;;20.82;44.46;98432.47;5027980;28;20033;-66
2021/06/25 07:51:39;;;;;;;2.92;0.90;;;;;;;21.06;44.04;98421.06;5015998;28;20029;-67
2021/06/25 07:54:04;;;;;;;3.17;0.60;;;;;;;21.39;42.57;98427.06;5014502;28;20013;-66
2021/06/25 07:56:30;;;;;;;2.88;0.70;;;;;;;21.82;42.82;98418.28;5015913;28;20542;-67
2021/06/25 07:58:57;;;;;;;2.05;0.50;;;;;;;22.07;41.45;98413.69;5019294;28;20026;-66
2021/06/25 08:01:23;;;;;;;3.38;0.70;;;;;;;22.48;40.08;98406.03;5010331;28;20120;-65
2021/06/25 08:03:49;;;;;;;3.15;0.60;;;;;;;22.73;40.21;98418.28;5029128;28;20727;-67
2021/06/25 08:06:14;;;;;;;2.38;0.70;;;;;;;22.79;39.40;98409.41;5030312;28;20033;-66
2021/06/25 08:08:40;;;;;;;3.47;0.70;;;;;;;22.82;38.67;98401.03;5018249;28;20099;-66
2021/06/25 08:11:06;;;;;;;2.10;0.50;;;;;;;23.17;38.29;98400.25;5009156;28;20034;-66
2021/06/25 08:13:32;;;;;;;1.73;0.50;;;;;;;23.29;37.89;98402.88;5016345;28;20040;-66
2021/06/25 08:15:57;;;;;;;3.50;0.40;;;;;;;23.67;37.81;98406.84;5033083;28;20129;-66
2021/06/25 08:18:22;;;;;;;1.55;0.40;;;;;;;23.79;37.07;98408.47;5015639;28;20042;-66
2021/06/25 08:20:48;;;;;;;1.38;0.40;;;;;;;23.67;36.57;98373.16;5018451;28;20040;-65
2021/06/25 08:23:14;;;;;;;2.35;0.50;;;;;;;23.84;37.13;98407.78;5015356;28;20056;-65
2021/06/25 08:25:39;;;;;;;2.13;0.47;;;;;;;24.03;36.69;98403.06;5015705;28;20033;-65
2021/06/25 08:28:05;;;;;;;1.98;0.52;;;;;;;24.46;35.25;98388.44;5016574;28;20388;-65
2021/06/25 08:30:32;;;;;;;3.47;0.40;;;;;;;24.83;35.11;98390.66;5013868;28;20164;-65
2021/06/25 08:32:57;;;;;;;2.03;0.40;;;;;;;24.60;34.44;98373.00;5020800;28;20030;-66
2021/06/25 08:35:23;;;;;;;1.65;0.43;;;;;;;24.72;33.57;98386.22;5008730;28;20033;-66
2021/06/25 08:37:49;;;;;;;1.45;0.43;;;;;;;24.67;34.48;98392.25;5018761;28;20083;-65
2021/06/25 08:40:16;;;;;;;1.92;0.40;;;;;;;25.16;32.66;98358.94;5005727;28;20054;-65
2021/06/25 08:42:41;;;;;;;1.02;0.25;;;;;;;25.70;32.32;98388.34;5010448;28;20169;-63
2021/06/25 08:45:09;;;;;;;1.42;0.40;;;;;;;26.25;30.85;98354.63;5016141;28;20493;-65
2021/06/25 08:47:49;;;;;;;1.58;0.35;;;;;;;26.74;29.52;98388.34;5018502;28;20038;-63
2021/06/25 08:50:18;;;;;;;1.52;0.30;;;;;;;27.15;30.70;98384.06;5018982;28;20383;-64
2021/06/25 08:52:44;;;;;;;1.17;0.30;;;;;;;27.14;28.89;98389.66;5016275;28;20120;-64
2021/06/25 08:55:11;;;;;;;1.55;0.30;;;;;;;27.38;28.17;98366.88;5017297;28;20028;-64
2021/06/25 08:57:36;;;;;;;1.05;0.22;;;;;;;27.10;29.86;98392.03;5017265;28;20523;-64
2021/06/25 09:00:08;;;;;;;0.52;0.20;;;;;;;27.20;30.59;98385.97;5015563;28;20029;-64
2021/06/25 09:02:35;;;;;;;0.77;0.22;;;;;;;26.97;30.26;98387.16;5000501;28;20112;-63
2021/06/25 09:05:04;;;;;;;1.35;0.45;;;;;;;27.65;28.10;98384.59;5028588;28;20313;-63
2021/06/25 09:07:41;;;;;;;0.85;0.30;;;;;;;27.90;28.05;98345.72;5010219;28;20021;-63
2021/06/25 09:10:08;;;;;;;1.92;0.30;;;;;;;28.29;27.97;98387.97;5022478;28;20111;-63
2021/06/25 09:12:33;;;;;;;2.63;0.40;;;;;;;27.84;28.72;98378.78;5014159;28;20028;-64
2021/06/25 09:15:11;;;;;;;0.45;0.20;;;;;;;28.43;26.49;98381.03;5010973;28;20038;-64
2021/06/25 09:17:55;;;;;;;1.02;0.30;;;;;;;28.95;25.61;98382.66;5002766;28;20553;-64
2021/06/25 09:20:43;;;;;;;1.05;0.28;;;;;;;29.65;26.29;98381.13;5000635;28;20382;-64
2021/06/25 09:23:10;;;;;;;1.48;0.30;;;;;;;29.95;24.07;98384.72;5014204;28;20022;-61
2021/06/25 09:25:56;;;;;;;1.30;0.30;;;;;;;30.00;24.59;98390.06;5000658;28;20400;-64
2021/06/25 09:28:28;;;;;;;2.47;0.40;;;;;;;29.93;25.59;98381.53;5002593;28;20028;-62
2021/06/25 09:30:53;;;;;;;1.55;0.43;;;;;;;29.88;26.09;98385.03;5019865;28;20052;-64
2021/06/25 09:33:19;;;;;;;1.73;0.40;;;;;;;29.85;26.61;98381.03;5016645;28;20022;-63
2021/06/25 09:35:53;;;;;;;1.80;0.38;;;;;;;29.62;26.28;98370.94;5016271;28;20021;-64
2021/06/25 09:38:32;;;;;;;2.55;0.50;;;;;;;29.43;26.47;98379.59;5019654;28;20241;-63
2021/06/25 09:40:57;;;;;;;;;;;;;;;29.52;26.90;98372.59;5022229;28;20495;-64
2021/06/25 09:43:30;;;;;;;3.30;0.70;;;;;;;29.81;26.75;98369.28;5031433;28;20039;-62
2021/06/25 09:45:55;;;;;;;2.20;0.40;;;;;;;29.71;27.00;98375.44;5020487;28;20720;-62
2021/06/25 09:48:21;;;;;;;2.90;0.50;;;;;;;29.70;26.90;98362.34;5030510;28;20112;-62
2021/06/25 09:50:46;;;;;;;3.55;0.65;;;;;;;29.71;26.96;98366.59;5026007;28;20560;-62
2021/06/25 09:53:12;;;;;;;2.65;0.70;;;;;;;29.69;29.70;98369.56;5020857;28;20123;-63
2021/06/25 09:55:51;;;;;;;3.58;0.80;;;;;;;29.08;28.28;98364.44;5034321;28;20033;-63
2021/06/25 10:03:53;;;;;;;2.28;0.47;;;;;;;28.83;29.74;98359.94;5028740;28;20044;-62
2021/06/25 10:06:21;;;;;;;2.42;0.60;;;;;;;28.85;29.85;98347.88;5026326;28;20026;-62
2021/06/25 10:08:47;;;;;;;5.43;0.68;;;;;;;28.26;30.33;98345.75;5011162;28;20026;-62
2021/06/25 10:11:14;;;;;;;4.18;0.70;;;;;;;28.11;30.46;98354.53;5018250;28;20108;-64
2021/06/25 10:13:41;;;;;;;2.72;0.68;;;;;;;27.65;32.24;98352.53;5034826;28;20021;-65
2021/06/25 10:16:08;;;;;;;5.05;0.80;;;;;;;27.60;32.24;98344.53;5014710;28;20042;-65
2021/06/25 10:18:38;;;;;;;3.83;0.60;;;;;;;27.35;31.95;98353.25;5012410;28;20083;-64
2021/06/25 10:21:06;;;;;;;3.42;0.70;;;;;;;26.70;33.57;98349.91;5021947;28;20103;-64
2021/06/25 10:23:33;;;;;;;3.17;0.50;;;;;;;27.06;32.25;98347.47;5030783;28;20060;-64
2021/06/25 10:26:00;;;;;;;1.98;0.50;;;;;;;26.59;33.70;98339.13;5028017;28;20059;-64
2021/06/25 10:28:27;;;;;;;3.92;0.50;;;;;;;26.53;33.53;98350.84;5019345;28;20053;-62
2021/06/25 10:30:52;;;;;;;1.27;0.40;;;;;;;26.46;33.54;98355.56;5032148;28;20116;-64
2021/06/25 10:33:18;;;;;;;2.97;0.50;;;;;;;26.37;34.18;98347.22;5018425;28;20148;-64
2021/06/25 10:35:44;;;;;;;3.20;0.50;;;;;;;26.26;34.39;98350.88;5017593;28;20507;-64
2021/06/25 10:38:10;;;;;;;2.33;0.55;;;;;;;26.35;33.47;98353.88;5021179;28;20026;-65
2021/06/25 10:40:35;;;;;;;3.53;0.68;;;;;;;25.85;35.16;98297.22;5034497;28;20083;-65
2021/06/25 10:43:02;;;;;;;1.50;0.60;;;;;;;26.06;34.75;98356.81;5023505;28;20559;-65
2021/06/25 10:45:46;;;;;;;1.80;0.50;;;;;;;25.87;34.87;98356.34;5017180;28;20041;-65
2021/06/25 10:48:38;;;;;;;2.72;0.40;;;;;;;25.84;34.43;98354.16;5032325;28;21018;-64
2021/06/25 10:51:23;;;;;;;7.03;1.13;;;;;;;25.92;34.78;98347.59;5011156;28;20092;-64
2021/06/25 10:54:21;;;;;;;2.97;0.50;;;;;;;25.84;34.21;98343.53;5032212;28;20743;-62
2021/06/25 10:56:49;;;;;;;1.25;0.40;;;;;;;25.94;34.83;98341.00;5013617;28;20049;-64
2021/06/25 10:59:23;;;;;;;1.87;0.60;;;;;;;25.99;33.79;98335.69;5023876;28;20076;-65
2021/06/25 11:02:00;;;;;;;2.35;0.38;;;;;;;25.86;33.84;98344.06;5017698;28;20555;-64
2021/06/25 11:04:34;;;;;;;4.20;0.73;;;;;;;25.77;33.73;98333.06;5019883;28;20472;-65
2021/06/25 11:07:04;;;;;;;2.53;0.50;;;;;;;25.86;33.87;98341.41;5021332;28;20167;-65
2021/06/25 11:09:52;;;;;;;1.40;0.45;;;;;;;25.87;33.41;98335.84;5020885;28;20036;-65
2021/06/25 11:12:29;;;;;;;1.93;0.40;;;;;;;25.98;32.84;98334.09;5019084;28;20036;-65
2021/06/25 11:15:03;;;;;;;1.15;0.47;;;;;;;26.05;32.90;98334.72;5005786;28;20033;-64
2021/06/25 11:17:47;;;;;;;2.75;0.47;;;;;;;25.87;33.37;98322.53;5020294;28;20021;-64
2021/06/25 11:20:34;;;;;;;1.38;0.40;;;;;;;26.58;31.01;98336.75;5019400;28;20025;-64
2021/06/25 11:23:23;;;;;;;2.60;0.43;;;;;;;26.19;32.52;98331.63;5015698;28;20021;-64
2021/06/25 11:26:02;;;;;;;2.58;0.60;;;;;;;26.09;32.50;98330.47;5007423;28;20021;-65
2021/06/25 11:28:31;;;;;;;2.25;0.50;;;;;;;26.07;32.71;98313.94;5014459;28;20033;-65
2021/06/25 11:31:02;;;;;;;1.95;0.50;;;;;;;26.19;32.99;98337.75;5014249;28;20037;-64
2021/06/25 11:33:29;;;;;;;3.60;0.57;;;;;;;26.19;32.18;98331.63;5019395;28;20037;-65
2021/06/25 11:35:55;;;;;;;1.85;0.47;;;;;;;25.79;31.51;98266.25;5021258;28;20470;-64
2021/06/25 11:38:52;;;;;;;3.80;0.65;;;;;;;26.20;33.75;98323.38;5018275;28;20044;-65
2021/06/25 11:41:17;;;;;;;2.38;0.50;;;;;;;26.07;32.67;98295.31;5016827;28;20064;-65
2021/06/25 11:43:43;;;;;;;1.55;0.60;;;;;;;26.24;32.61;98327.13;5018505;28;20056;-65
2021/06/25 11:46:08;;;;;;;1.98;0.40;;;;;;;26.13;31.94;98327.31;5014953;28;20030;-65
2021/06/25 11:48:36;;;;;;;2.22;0.40;;;;;;;25.96;32.78;98322.13;5018076;28;20029;-65
2021/06/25 11:51:02;;;;;;;2.03;0.50;;;;;;;26.12;32.49;98317.72;5018084;28;20044;-65